sensor_id;sensor_type;location;lat;lon;timestamp;temperature;humidity
28654;DHT22;24320;56.980;24.336;2023-03-04T00:03:04;1.50;99.90
28654;DHT22;24320;56.980;24.336;2023-03-04T00:05:32;1.60;99.90
28654;DHT22;24320;56.980;24.336;2023-03-04T00:07:59;1.60;99.90
28654;DHT22;24320;56.980;24.336;2023-03-04T00:10:26;1.50;99.90
28654;DHT22;24320;56.980;24.336;2023-03-04T00:12:54;1.50;99.90
28654;DHT22;24320;56.980;24.336;2023-03-04T00:15:21;1.50;99.90
28654;DHT22;24320;56.980;24.336;2023-03-04T00:17:48;1.40;99.90
28654;DHT22;24320;56.980;24.336;2023-03-04T00:20:15;1.40;99.90
28654;DHT22;24320;56.980;24.336;2023-03-04T00:22:42;1.40;99.90
28654;DHT22;24320;56.980;24.336;2023-03-04T00:25:09;1.40;99.90
28654;DHT22;24320;56.980;24.336;2023-03-04T00:27:36;1.40;99.90
28654;DHT22;24320;56.980;24.336;2023-03-04T00:30:05;1.40;99.90
28654;DHT22;24320;56.980;24.336;2023-03-04T00:32:32;1.40;99.90
28654;DHT22;24320;56.980;24.336;2023-03-04T00:34:59;1.40;99.90
28654;DHT22;24320;56.980;24.336;2023-03-04T00:37:26;1.40;99.90
28654;DHT22;24320;56.980;24.336;2023-03-04T00:39:53;1.40;99.90
28654;DHT22;24320;56.980;24.336;2023-03-04T00:42:20;1.40;99.90
28654;DHT22;24320;56.980;24.336;2023-03-04T00:44:47;1.40;99.90
28654;DHT22;24320;56.980;24.336;2023-03-04T00:47:15;1.40;99.90
28654;DHT22;24320;56.980;24.336;2023-03-04T00:49:42;1.40;99.90
28654;DHT22;24320;56.980;24.336;2023-03-04T00:52:09;1.30;99.90
28654;DHT22;24320;56.980;24.336;2023-03-04T00:54:36;1.30;99.90
28654;DHT22;24320;56.980;24.336;2023-03-04T00:57:03;1.30;99.90
28654;DHT22;24320;56.980;24.336;2023-03-04T00:59:30;1.30;99.90
28654;DHT22;24320;56.980;24.336;2023-03-04T01:01:58;1.20;99.90
28654;DHT22;24320;56.980;24.336;2023-03-04T01:04:26;1.20;99.90
28654;DHT22;24320;56.980;24.336;2023-03-04T01:06:53;1.20;99.90
28654;DHT22;24320;56.980;24.336;2023-03-04T01:09:20;1.10;99.90
28654;DHT22;24320;56.980;24.336;2023-03-04T01:11:47;1.10;99.90
28654;DHT22;24320;56.980;24.336;2023-03-04T01:14:14;1.10;99.90
28654;DHT22;24320;56.980;24.336;2023-03-04T01:16:41;1.20;99.90
28654;DHT22;24320;56.980;24.336;2023-03-04T01:19:08;1.20;99.90
28654;DHT22;24320;56.980;24.336;2023-03-04T01:21:35;1.20;99.90
28654;DHT22;24320;56.980;24.336;2023-03-04T01:24:02;1.20;99.90
28654;DHT22;24320;56.980;24.336;2023-03-04T01:26:29;1.20;99.90
28654;DHT22;24320;56.980;24.336;2023-03-04T01:28:56;1.20;99.90
28654;DHT22;24320;56.980;24.336;2023-03-04T01:31:23;1.20;99.90
28654;DHT22;24320;56.980;24.336;2023-03-04T01:33:50;1.20;99.90
28654;DHT22;24320;56.980;24.336;2023-03-04T01:36:17;1.30;99.90
28654;DHT22;24320;56.980;24.336;2023-03-04T01:38:44;1.30;99.90
28654;DHT22;24320;56.980;24.336;2023-03-04T01:41:12;1.30;99.90
28654;DHT22;24320;56.980;24.336;2023-03-04T01:43:39;1.30;99.90
28654;DHT22;24320;56.980;24.336;2023-03-04T01:46:08;1.30;99.90
28654;DHT22;24320;56.980;24.336;2023-03-04T01:48:37;1.40;99.90
28654;DHT22;24320;56.980;24.336;2023-03-04T01:51:06;1.40;99.90
28654;DHT22;24320;56.980;24.336;2023-03-04T01:53:36;1.40;99.90
28654;DHT22;24320;56.980;24.336;2023-03-04T01:56:14;1.40;99.90
28654;DHT22;24320;56.980;24.336;2023-03-04T01:58:41;1.50;99.90
28654;DHT22;24320;56.980;24.336;2023-03-04T02:01:12;1.50;99.90
28654;DHT22;24320;56.980;24.336;2023-03-04T02:03:39;1.50;99.90
28654;DHT22;24320;56.980;24.336;2023-03-04T02:06:06;1.40;99.90
28654;DHT22;24320;56.980;24.336;2023-03-04T02:08:34;1.40;99.90
28654;DHT22;24320;56.980;24.336;2023-03-04T02:11:01;1.50;99.90
28654;DHT22;24320;56.980;24.336;2023-03-04T02:13:28;1.50;99.90
28654;DHT22;24320;56.980;24.336;2023-03-04T02:15:55;1.60;99.90
28654;DHT22;24320;56.980;24.336;2023-03-04T02:18:23;1.50;99.90
28654;DHT22;24320;56.980;24.336;2023-03-04T02:26:19;1.50;99.90
28654;DHT22;24320;56.980;24.336;2023-03-04T02:28:47;1.50;99.90
28654;DHT22;24320;56.980;24.336;2023-03-04T02:31:25;1.50;99.90
28654;DHT22;24320;56.980;24.336;2023-03-04T02:33:55;1.60;99.90
28654;DHT22;24320;56.980;24.336;2023-03-04T02:36:23;1.60;99.90
28654;DHT22;24320;56.980;24.336;2023-03-04T02:38:52;1.70;99.90
28654;DHT22;24320;56.980;24.336;2023-03-04T02:41:23;1.70;99.90
28654;DHT22;24320;56.980;24.336;2023-03-04T02:43:52;1.60;99.90
28654;DHT22;24320;56.980;24.336;2023-03-04T02:46:20;1.50;99.90
28654;DHT22;24320;56.980;24.336;2023-03-04T02:48:48;1.30;99.90
28654;DHT22;24320;56.980;24.336;2023-03-04T02:51:15;1.20;99.90
28654;DHT22;24320;56.980;24.336;2023-03-04T02:53:42;1.10;99.90
28654;DHT22;24320;56.980;24.336;2023-03-04T02:56:09;1.10;99.90
28654;DHT22;24320;56.980;24.336;2023-03-04T02:58:36;1.10;99.90
28654;DHT22;24320;56.980;24.336;2023-03-04T03:01:07;1.10;99.90
28654;DHT22;24320;56.980;24.336;2023-03-04T03:03:34;1.20;99.90
28654;DHT22;24320;56.980;24.336;2023-03-04T03:06:01;1.20;99.90
28654;DHT22;24320;56.980;24.336;2023-03-04T03:08:28;1.30;99.90
28654;DHT22;24320;56.980;24.336;2023-03-04T03:10:55;1.30;99.90
28654;DHT22;24320;56.980;24.336;2023-03-04T03:13:22;1.40;99.90
28654;DHT22;24320;56.980;24.336;2023-03-04T03:15:49;1.40;99.90
28654;DHT22;24320;56.980;24.336;2023-03-04T03:18:16;1.50;99.90
28654;DHT22;24320;56.980;24.336;2023-03-04T03:20:43;1.60;99.90
28654;DHT22;24320;56.980;24.336;2023-03-04T03:23:10;1.60;99.90
28654;DHT22;24320;56.980;24.336;2023-03-04T03:25:37;1.60;99.90
28654;DHT22;24320;56.980;24.336;2023-03-04T03:28:04;1.60;99.90
28654;DHT22;24320;56.980;24.336;2023-03-04T03:30:31;1.60;99.90
28654;DHT22;24320;56.980;24.336;2023-03-04T03:32:58;1.60;99.90
28654;DHT22;24320;56.980;24.336;2023-03-04T03:35:26;1.60;99.90
28654;DHT22;24320;56.980;24.336;2023-03-04T03:37:53;1.60;99.90
28654;DHT22;24320;56.980;24.336;2023-03-04T03:40:20;1.60;99.90
28654;DHT22;24320;56.980;24.336;2023-03-04T03:42:47;1.60;99.90
28654;DHT22;24320;56.980;24.336;2023-03-04T03:45:14;1.60;99.90
28654;DHT22;24320;56.980;24.336;2023-03-04T03:47:41;1.50;99.90
28654;DHT22;24320;56.980;24.336;2023-03-04T03:50:08;1.50;99.90
28654;DHT22;24320;56.980;24.336;2023-03-04T03:52:35;1.50;99.90
28654;DHT22;24320;56.980;24.336;2023-03-04T03:55:02;1.40;99.90
28654;DHT22;24320;56.980;24.336;2023-03-04T03:57:30;1.40;99.90
28654;DHT22;24320;56.980;24.336;2023-03-04T03:59:57;1.40;99.90
28654;DHT22;24320;56.980;24.336;2023-03-04T04:02:24;1.40;99.90
28654;DHT22;24320;56.980;24.336;2023-03-04T04:04:51;1.30;99.90
28654;DHT22;24320;56.980;24.336;2023-03-04T04:07:18;1.30;99.90
28654;DHT22;24320;56.980;24.336;2023-03-04T04:09:45;1.30;99.90
28654;DHT22;24320;56.980;24.336;2023-03-04T04:12:14;1.40;99.90
28654;DHT22;24320;56.980;24.336;2023-03-04T04:14:42;1.50;99.90
28654;DHT22;24320;56.980;24.336;2023-03-04T04:17:09;1.50;99.90
28654;DHT22;24320;56.980;24.336;2023-03-04T04:19:36;1.50;99.90
28654;DHT22;24320;56.980;24.336;2023-03-04T04:22:04;1.40;99.90
28654;DHT22;24320;56.980;24.336;2023-03-04T04:24:31;1.30;99.90
28654;DHT22;24320;56.980;24.336;2023-03-04T04:26:58;1.30;99.90
28654;DHT22;24320;56.980;24.336;2023-03-04T04:29:25;1.20;99.90
28654;DHT22;24320;56.980;24.336;2023-03-04T04:31:52;1.20;99.90
28654;DHT22;24320;56.980;24.336;2023-03-04T04:34:19;1.20;99.90
28654;DHT22;24320;56.980;24.336;2023-03-04T04:36:46;1.10;99.90
28654;DHT22;24320;56.980;24.336;2023-03-04T04:39:13;1.00;99.90
28654;DHT22;24320;56.980;24.336;2023-03-04T04:41:43;1.00;99.90
28654;DHT22;24320;56.980;24.336;2023-03-04T04:44:11;0.90;99.90
28654;DHT22;24320;56.980;24.336;2023-03-04T04:46:39;0.90;99.90
28654;DHT22;24320;56.980;24.336;2023-03-04T04:49:07;0.90;99.90
28654;DHT22;24320;56.980;24.336;2023-03-04T04:51:36;0.80;99.90
28654;DHT22;24320;56.980;24.336;2023-03-04T04:54:04;0.80;99.90
28654;DHT22;24320;56.980;24.336;2023-03-04T04:56:31;0.80;99.90
28654;DHT22;24320;56.980;24.336;2023-03-04T04:59:01;0.80;99.90
28654;DHT22;24320;56.980;24.336;2023-03-04T05:01:29;0.80;99.90
28654;DHT22;24320;56.980;24.336;2023-03-04T05:03:57;0.80;99.90
28654;DHT22;24320;56.980;24.336;2023-03-04T05:06:24;0.70;99.90
28654;DHT22;24320;56.980;24.336;2023-03-04T05:08:51;0.60;99.90
28654;DHT22;24320;56.980;24.336;2023-03-04T05:11:19;0.40;99.90
28654;DHT22;24320;56.980;24.336;2023-03-04T05:13:47;0.10;99.90
28654;DHT22;24320;56.980;24.336;2023-03-04T05:16:15;-0.10;99.90
28654;DHT22;24320;56.980;24.336;2023-03-04T05:21:14;-0.30;99.90
28654;DHT22;24320;56.980;24.336;2023-03-04T05:23:42;-0.30;99.90
28654;DHT22;24320;56.980;24.336;2023-03-04T05:26:13;-0.40;99.90
28654;DHT22;24320;56.980;24.336;2023-03-04T05:28:40;-0.40;99.90
28654;DHT22;24320;56.980;24.336;2023-03-04T05:31:08;-0.40;99.90
28654;DHT22;24320;56.980;24.336;2023-03-04T05:33:35;-0.30;99.90
28654;DHT22;24320;56.980;24.336;2023-03-04T05:36:03;-0.30;99.90
28654;DHT22;24320;56.980;24.336;2023-03-04T05:38:31;-0.20;99.90
28654;DHT22;24320;56.980;24.336;2023-03-04T05:41:00;-0.10;99.90
28654;DHT22;24320;56.980;24.336;2023-03-04T05:43:27;0.00;99.90
28654;DHT22;24320;56.980;24.336;2023-03-04T05:45:55;0.10;99.90
28654;DHT22;24320;56.980;24.336;2023-03-04T05:48:22;0.10;99.90
28654;DHT22;24320;56.980;24.336;2023-03-04T05:50:57;0.00;99.90
28654;DHT22;24320;56.980;24.336;2023-03-04T05:53:24;0.00;99.90
28654;DHT22;24320;56.980;24.336;2023-03-04T05:55:51;0.00;99.90
28654;DHT22;24320;56.980;24.336;2023-03-04T05:58:18;0.00;99.90
28654;DHT22;24320;56.980;24.336;2023-03-04T06:00:45;0.10;99.90
28654;DHT22;24320;56.980;24.336;2023-03-04T06:03:14;0.10;99.90
28654;DHT22;24320;56.980;24.336;2023-03-04T06:05:41;0.20;99.90
28654;DHT22;24320;56.980;24.336;2023-03-04T06:08:10;0.30;99.90
28654;DHT22;24320;56.980;24.336;2023-03-04T06:10:38;0.30;99.90
28654;DHT22;24320;56.980;24.336;2023-03-04T06:13:06;0.40;99.90
28654;DHT22;24320;56.980;24.336;2023-03-04T06:15:33;0.40;99.90
28654;DHT22;24320;56.980;24.336;2023-03-04T06:18:01;0.40;99.90
28654;DHT22;24320;56.980;24.336;2023-03-04T06:20:28;0.40;99.90
28654;DHT22;24320;56.980;24.336;2023-03-04T06:22:54;0.40;99.90
28654;DHT22;24320;56.980;24.336;2023-03-04T06:25:22;0.40;99.90
28654;DHT22;24320;56.980;24.336;2023-03-04T06:27:49;0.50;99.90
28654;DHT22;24320;56.980;24.336;2023-03-04T06:30:19;0.50;99.90
28654;DHT22;24320;56.980;24.336;2023-03-04T06:32:46;0.40;99.90
28654;DHT22;24320;56.980;24.336;2023-03-04T06:35:15;0.50;99.90
28654;DHT22;24320;56.980;24.336;2023-03-04T06:37:42;0.50;99.90
28654;DHT22;24320;56.980;24.336;2023-03-04T06:40:11;0.50;99.90
28654;DHT22;24320;56.980;24.336;2023-03-04T06:42:39;0.50;99.90
28654;DHT22;24320;56.980;24.336;2023-03-04T06:45:08;0.60;99.90
28654;DHT22;24320;56.980;24.336;2023-03-04T06:47:35;0.60;99.90
28654;DHT22;24320;56.980;24.336;2023-03-04T06:50:03;0.60;99.90
28654;DHT22;24320;56.980;24.336;2023-03-04T06:52:30;0.60;99.90
28654;DHT22;24320;56.980;24.336;2023-03-04T06:54:57;0.80;99.90
28654;DHT22;24320;56.980;24.336;2023-03-04T06:57:24;0.90;99.90
28654;DHT22;24320;56.980;24.336;2023-03-04T06:59:51;1.10;99.90
28654;DHT22;24320;56.980;24.336;2023-03-04T07:02:19;1.30;99.90
28654;DHT22;24320;56.980;24.336;2023-03-04T07:04:46;1.50;99.90
28654;DHT22;24320;56.980;24.336;2023-03-04T07:07:13;1.50;99.90
28654;DHT22;24320;56.980;24.336;2023-03-04T07:09:40;1.40;99.90
28654;DHT22;24320;56.980;24.336;2023-03-04T07:12:07;1.30;99.90
28654;DHT22;24320;56.980;24.336;2023-03-04T07:14:34;1.20;99.90
28654;DHT22;24320;56.980;24.336;2023-03-04T07:17:01;1.20;99.90
28654;DHT22;24320;56.980;24.336;2023-03-04T07:19:28;1.30;99.90
28654;DHT22;24320;56.980;24.336;2023-03-04T07:21:55;1.40;99.90
28654;DHT22;24320;56.980;24.336;2023-03-04T07:24:22;1.30;99.90
28654;DHT22;24320;56.980;24.336;2023-03-04T07:26:49;1.30;99.90
28654;DHT22;24320;56.980;24.336;2023-03-04T07:29:16;1.20;99.90
28654;DHT22;24320;56.980;24.336;2023-03-04T07:31:43;1.10;99.90
28654;DHT22;24320;56.980;24.336;2023-03-04T07:34:12;0.90;99.90
28654;DHT22;24320;56.980;24.336;2023-03-04T07:36:43;0.60;99.90
28654;DHT22;24320;56.980;24.336;2023-03-04T07:39:11;0.40;99.90
28654;DHT22;24320;56.980;24.336;2023-03-04T07:41:40;0.50;99.90
28654;DHT22;24320;56.980;24.336;2023-03-04T07:44:08;0.60;99.90
28654;DHT22;24320;56.980;24.336;2023-03-04T07:46:39;0.70;99.90
28654;DHT22;24320;56.980;24.336;2023-03-04T07:49:06;0.90;99.90
28654;DHT22;24320;56.980;24.336;2023-03-04T07:51:33;1.10;99.90
28654;DHT22;24320;56.980;24.336;2023-03-04T07:54:01;1.10;99.90
28654;DHT22;24320;56.980;24.336;2023-03-04T07:56:31;1.00;99.90
28654;DHT22;24320;56.980;24.336;2023-03-04T07:58:58;1.00;99.90
28654;DHT22;24320;56.980;24.336;2023-03-04T08:01:32;0.90;99.90
28654;DHT22;24320;56.980;24.336;2023-03-04T08:04:00;0.80;99.90
28654;DHT22;24320;56.980;24.336;2023-03-04T08:06:27;0.70;99.90
28654;DHT22;24320;56.980;24.336;2023-03-04T08:08:58;0.80;99.90
28654;DHT22;24320;56.980;24.336;2023-03-04T08:11:27;1.10;99.90
28654;DHT22;24320;56.980;24.336;2023-03-04T08:13:54;1.20;99.90
28654;DHT22;24320;56.980;24.336;2023-03-04T08:16:22;1.40;99.90
28654;DHT22;24320;56.980;24.336;2023-03-04T08:18:52;1.50;99.90
28654;DHT22;24320;56.980;24.336;2023-03-04T08:21:21;1.50;99.90
28654;DHT22;24320;56.980;24.336;2023-03-04T08:23:50;1.40;99.90
28654;DHT22;24320;56.980;24.336;2023-03-04T08:26:21;1.30;99.90
28654;DHT22;24320;56.980;24.336;2023-03-04T08:28:48;1.30;99.90
28654;DHT22;24320;56.980;24.336;2023-03-04T08:31:16;1.20;99.90
28654;DHT22;24320;56.980;24.336;2023-03-04T08:33:44;1.10;99.90
28654;DHT22;24320;56.980;24.336;2023-03-04T08:36:11;1.00;99.90
28654;DHT22;24320;56.980;24.336;2023-03-04T08:38:39;1.00;99.90
28654;DHT22;24320;56.980;24.336;2023-03-04T08:41:06;1.10;99.90
28654;DHT22;24320;56.980;24.336;2023-03-04T08:43:33;1.10;99.90
28654;DHT22;24320;56.980;24.336;2023-03-04T08:46:01;0.90;99.90
28654;DHT22;24320;56.980;24.336;2023-03-04T08:48:28;0.70;99.90
28654;DHT22;24320;56.980;24.336;2023-03-04T08:50:55;0.60;99.90
28654;DHT22;24320;56.980;24.336;2023-03-04T08:53:22;0.50;99.90
28654;DHT22;24320;56.980;24.336;2023-03-04T08:55:50;0.60;99.90
28654;DHT22;24320;56.980;24.336;2023-03-04T08:58:18;0.50;99.90
28654;DHT22;24320;56.980;24.336;2023-03-04T09:00:47;0.40;99.90
28654;DHT22;24320;56.980;24.336;2023-03-04T09:03:15;0.30;99.90
28654;DHT22;24320;56.980;24.336;2023-03-04T09:05:44;0.30;99.90
28654;DHT22;24320;56.980;24.336;2023-03-04T09:08:12;0.30;99.90
28654;DHT22;24320;56.980;24.336;2023-03-04T09:10:40;0.30;99.90
28654;DHT22;24320;56.980;24.336;2023-03-04T09:13:07;0.30;99.90
28654;DHT22;24320;56.980;24.336;2023-03-04T09:15:37;0.30;99.90
28654;DHT22;24320;56.980;24.336;2023-03-04T09:18:09;0.40;99.90
28654;DHT22;24320;56.980;24.336;2023-03-04T09:20:36;0.40;99.90
28654;DHT22;24320;56.980;24.336;2023-03-04T09:23:03;0.50;99.90
28654;DHT22;24320;56.980;24.336;2023-03-04T09:25:31;0.60;99.90
28654;DHT22;24320;56.980;24.336;2023-03-04T09:27:58;0.70;99.90
28654;DHT22;24320;56.980;24.336;2023-03-04T09:30:25;0.80;99.90
28654;DHT22;24320;56.980;24.336;2023-03-04T09:32:54;0.80;99.90
28654;DHT22;24320;56.980;24.336;2023-03-04T09:35:21;0.80;99.90
28654;DHT22;24320;56.980;24.336;2023-03-04T09:37:50;0.80;99.90
28654;DHT22;24320;56.980;24.336;2023-03-04T09:40:21;0.70;99.90
28654;DHT22;24320;56.980;24.336;2023-03-04T09:42:53;0.60;99.90
28654;DHT22;24320;56.980;24.336;2023-03-04T09:45:28;0.50;99.90
28654;DHT22;24320;56.980;24.336;2023-03-04T09:47:58;0.60;99.90
28654;DHT22;24320;56.980;24.336;2023-03-04T09:50:26;0.60;99.90
28654;DHT22;24320;56.980;24.336;2023-03-04T09:53:39;0.60;99.90
28654;DHT22;24320;56.980;24.336;2023-03-04T09:56:12;0.50;99.90
28654;DHT22;24320;56.980;24.336;2023-03-04T09:58:56;0.50;99.90
28654;DHT22;24320;56.980;24.336;2023-03-04T10:01:35;0.60;99.90
28654;DHT22;24320;56.980;24.336;2023-03-04T10:04:33;0.60;99.90
28654;DHT22;24320;56.980;24.336;2023-03-04T10:07:02;0.60;99.90
28654;DHT22;24320;56.980;24.336;2023-03-04T10:12:13;0.60;99.90
28654;DHT22;24320;56.980;24.336;2023-03-04T10:15:01;0.70;99.90
28654;DHT22;24320;56.980;24.336;2023-03-04T10:17:36;0.50;99.90
28654;DHT22;24320;56.980;24.336;2023-03-04T10:20:14;0.50;99.90
28654;DHT22;24320;56.980;24.336;2023-03-04T10:22:52;0.40;99.90
28654;DHT22;24320;56.980;24.336;2023-03-04T10:25:32;0.40;99.90
28654;DHT22;24320;56.980;24.336;2023-03-04T10:28:00;0.30;99.90
28654;DHT22;24320;56.980;24.336;2023-03-04T10:33:34;0.40;99.90
28654;DHT22;24320;56.980;24.336;2023-03-04T10:38:35;0.40;99.90
28654;DHT22;24320;56.980;24.336;2023-03-04T10:41:15;0.20;99.90
28654;DHT22;24320;56.980;24.336;2023-03-04T10:43:48;0.10;99.90
28654;DHT22;24320;56.980;24.336;2023-03-04T10:46:16;0.00;99.90
28654;DHT22;24320;56.980;24.336;2023-03-04T10:48:43;-0.20;99.90
28654;DHT22;24320;56.980;24.336;2023-03-04T10:51:26;-0.20;99.90
28654;DHT22;24320;56.980;24.336;2023-03-04T10:54:23;-0.20;99.90
28654;DHT22;24320;56.980;24.336;2023-03-04T10:57:00;-0.20;99.90
28654;DHT22;24320;56.980;24.336;2023-03-04T11:00:29;-0.20;99.90
28654;DHT22;24320;56.980;24.336;2023-03-04T11:02:36;-0.20;99.90
28654;DHT22;24320;56.980;24.336;2023-03-04T11:05:19;-0.40;99.90
28654;DHT22;24320;56.980;24.336;2023-03-04T11:07:51;-0.40;99.90
28654;DHT22;24320;56.980;24.336;2023-03-04T11:10:37;-0.30;99.90
28654;DHT22;24320;56.980;24.336;2023-03-04T11:15:58;-0.30;99.90
28654;DHT22;24320;56.980;24.336;2023-03-04T11:18:57;-0.40;99.90
28654;DHT22;24320;56.980;24.336;2023-03-04T11:21:29;-0.50;99.90
28654;DHT22;24320;56.980;24.336;2023-03-04T11:24:05;-0.50;99.90
28654;DHT22;24320;56.980;24.336;2023-03-04T11:27:39;-0.50;99.90
28654;DHT22;24320;56.980;24.336;2023-03-04T11:29:57;-0.60;99.90
28654;DHT22;24320;56.980;24.336;2023-03-04T11:32:36;-0.60;99.90
28654;DHT22;24320;56.980;24.336;2023-03-04T11:35:25;-0.60;99.90
28654;DHT22;24320;56.980;24.336;2023-03-04T11:38:07;-0.60;99.90
28654;DHT22;24320;56.980;24.336;2023-03-04T11:40:42;-0.60;99.90
28654;DHT22;24320;56.980;24.336;2023-03-04T11:43:24;-0.60;99.90
28654;DHT22;24320;56.980;24.336;2023-03-04T11:49:04;-0.70;99.90
28654;DHT22;24320;56.980;24.336;2023-03-04T11:56:56;-0.70;99.90
28654;DHT22;24320;56.980;24.336;2023-03-04T12:08:25;-0.50;99.90
28654;DHT22;24320;56.980;24.336;2023-03-04T12:11:01;-0.50;99.90
28654;DHT22;24320;56.980;24.336;2023-03-04T12:36:42;0.30;99.90
28654;DHT22;24320;56.980;24.336;2023-03-04T12:41:46;0.40;99.90
28654;DHT22;24320;56.980;24.336;2023-03-04T12:44:20;0.40;99.90
28654;DHT22;24320;56.980;24.336;2023-03-04T13:51:42;0.80;99.90
28654;DHT22;24320;56.980;24.336;2023-03-04T13:54:34;0.90;99.90
28654;DHT22;24320;56.980;24.336;2023-03-04T13:57:19;1.00;99.90
28654;DHT22;24320;56.980;24.336;2023-03-04T13:59:49;1.00;99.90
28654;DHT22;24320;56.980;24.336;2023-03-04T14:02:23;0.90;99.90
28654;DHT22;24320;56.980;24.336;2023-03-04T14:05:00;0.90;99.90
28654;DHT22;24320;56.980;24.336;2023-03-04T14:07:29;0.90;99.90
28654;DHT22;24320;56.980;24.336;2023-03-04T14:12:57;0.80;99.90
28654;DHT22;24320;56.980;24.336;2023-03-04T14:15:28;0.80;99.90
28654;DHT22;24320;56.980;24.336;2023-03-04T14:18:01;0.80;99.90
28654;DHT22;24320;56.980;24.336;2023-03-04T14:25:47;0.80;99.90
28654;DHT22;24320;56.980;24.336;2023-03-04T14:28:18;0.70;99.90
28654;DHT22;24320;56.980;24.336;2023-03-04T14:30:54;0.70;99.90
28654;DHT22;24320;56.980;24.336;2023-03-04T14:33:24;0.70;99.90
28654;DHT22;24320;56.980;24.336;2023-03-04T14:35:55;0.70;99.90
28654;DHT22;24320;56.980;24.336;2023-03-04T14:38:29;0.70;99.90
28654;DHT22;24320;56.980;24.336;2023-03-04T14:46:24;0.60;99.90
28654;DHT22;24320;56.980;24.336;2023-03-04T14:48:52;0.60;99.90
28654;DHT22;24320;56.980;24.336;2023-03-04T14:54:34;0.60;99.90
28654;DHT22;24320;56.980;24.336;2023-03-04T14:57:26;0.60;99.90
28654;DHT22;24320;56.980;24.336;2023-03-04T14:59:55;0.60;99.90
28654;DHT22;24320;56.980;24.336;2023-03-04T15:02:34;0.60;99.90
28654;DHT22;24320;56.980;24.336;2023-03-04T15:05:20;0.60;99.90
28654;DHT22;24320;56.980;24.336;2023-03-04T15:08:04;0.60;99.90
28654;DHT22;24320;56.980;24.336;2023-03-04T15:10:37;0.60;99.90
28654;DHT22;24320;56.980;24.336;2023-03-04T15:13:06;0.60;99.90
28654;DHT22;24320;56.980;24.336;2023-03-04T15:15:40;0.60;99.90
28654;DHT22;24320;56.980;24.336;2023-03-04T15:18:24;0.60;99.90
28654;DHT22;24320;56.980;24.336;2023-03-04T15:23:20;0.60;99.90
28654;DHT22;24320;56.980;24.336;2023-03-04T15:25:51;0.50;99.90
28654;DHT22;24320;56.980;24.336;2023-03-04T15:28:19;0.50;99.90
28654;DHT22;24320;56.980;24.336;2023-03-04T15:30:47;0.50;99.90
28654;DHT22;24320;56.980;24.336;2023-03-04T15:33:14;0.50;99.90
28654;DHT22;24320;56.980;24.336;2023-03-04T15:35:48;0.50;99.90
28654;DHT22;24320;56.980;24.336;2023-03-04T15:38:17;0.50;99.90
28654;DHT22;24320;56.980;24.336;2023-03-04T15:40:45;0.50;99.90
28654;DHT22;24320;56.980;24.336;2023-03-04T15:43:18;0.50;99.90
28654;DHT22;24320;56.980;24.336;2023-03-04T15:45:50;0.40;99.90
28654;DHT22;24320;56.980;24.336;2023-03-04T15:48:18;0.50;99.90
28654;DHT22;24320;56.980;24.336;2023-03-04T15:50:56;0.40;99.90
28654;DHT22;24320;56.980;24.336;2023-03-04T15:53:32;0.50;99.90
28654;DHT22;24320;56.980;24.336;2023-03-04T15:56:03;0.40;99.90
28654;DHT22;24320;56.980;24.336;2023-03-04T15:58:30;0.50;99.90
28654;DHT22;24320;56.980;24.336;2023-03-04T16:01:01;0.50;99.90
28654;DHT22;24320;56.980;24.336;2023-03-04T16:03:28;0.50;99.90
28654;DHT22;24320;56.980;24.336;2023-03-04T16:05:55;0.40;99.90
28654;DHT22;24320;56.980;24.336;2023-03-04T16:08:23;0.50;99.90
28654;DHT22;24320;56.980;24.336;2023-03-04T16:10:51;0.50;99.90
28654;DHT22;24320;56.980;24.336;2023-03-04T16:13:21;0.40;99.90
28654;DHT22;24320;56.980;24.336;2023-03-04T16:15:49;0.40;99.90
28654;DHT22;24320;56.980;24.336;2023-03-04T16:18:16;0.40;99.90
28654;DHT22;24320;56.980;24.336;2023-03-04T16:20:46;0.40;99.90
28654;DHT22;24320;56.980;24.336;2023-03-04T16:23:16;0.40;99.90
28654;DHT22;24320;56.980;24.336;2023-03-04T16:25:46;0.40;99.90
28654;DHT22;24320;56.980;24.336;2023-03-04T16:28:14;0.40;99.90
28654;DHT22;24320;56.980;24.336;2023-03-04T16:30:41;0.40;99.90
28654;DHT22;24320;56.980;24.336;2023-03-04T16:33:09;0.40;99.90
28654;DHT22;24320;56.980;24.336;2023-03-04T16:35:38;0.40;99.90
28654;DHT22;24320;56.980;24.336;2023-03-04T16:38:33;0.40;99.90
28654;DHT22;24320;56.980;24.336;2023-03-04T16:41:00;0.40;99.90
28654;DHT22;24320;56.980;24.336;2023-03-04T16:43:30;0.40;99.90
28654;DHT22;24320;56.980;24.336;2023-03-04T16:48:28;0.30;99.90
28654;DHT22;24320;56.980;24.336;2023-03-04T16:50:55;0.30;99.90
28654;DHT22;24320;56.980;24.336;2023-03-04T16:53:32;0.40;99.90
28654;DHT22;24320;56.980;24.336;2023-03-04T16:56:14;0.40;99.90
28654;DHT22;24320;56.980;24.336;2023-03-04T16:58:42;0.40;99.90
28654;DHT22;24320;56.980;24.336;2023-03-04T17:01:22;0.40;99.90
28654;DHT22;24320;56.980;24.336;2023-03-04T17:03:50;0.40;99.90
28654;DHT22;24320;56.980;24.336;2023-03-04T17:06:18;0.40;99.90
28654;DHT22;24320;56.980;24.336;2023-03-04T17:08:46;0.40;99.90
28654;DHT22;24320;56.980;24.336;2023-03-04T17:11:16;0.40;99.90
28654;DHT22;24320;56.980;24.336;2023-03-04T17:13:53;0.40;99.90
28654;DHT22;24320;56.980;24.336;2023-03-04T17:16:22;0.40;99.90
28654;DHT22;24320;56.980;24.336;2023-03-04T17:18:50;0.40;99.90
28654;DHT22;24320;56.980;24.336;2023-03-04T17:21:23;0.40;99.90
28654;DHT22;24320;56.980;24.336;2023-03-04T17:23:51;0.40;99.90
28654;DHT22;24320;56.980;24.336;2023-03-04T17:26:18;0.40;99.90
28654;DHT22;24320;56.980;24.336;2023-03-04T17:28:50;0.40;99.90
28654;DHT22;24320;56.980;24.336;2023-03-04T17:31:18;0.40;99.90
28654;DHT22;24320;56.980;24.336;2023-03-04T17:33:46;0.40;99.90
28654;DHT22;24320;56.980;24.336;2023-03-04T17:36:15;0.40;99.90
28654;DHT22;24320;56.980;24.336;2023-03-04T17:38:42;0.40;99.90
28654;DHT22;24320;56.980;24.336;2023-03-04T17:41:11;0.40;99.90
28654;DHT22;24320;56.980;24.336;2023-03-04T17:43:43;0.40;99.90
28654;DHT22;24320;56.980;24.336;2023-03-04T17:46:12;0.40;99.90
28654;DHT22;24320;56.980;24.336;2023-03-04T17:48:40;0.40;99.90
28654;DHT22;24320;56.980;24.336;2023-03-04T17:51:07;0.40;99.90
28654;DHT22;24320;56.980;24.336;2023-03-04T17:53:34;0.40;99.90
28654;DHT22;24320;56.980;24.336;2023-03-04T17:56:03;0.40;99.90
28654;DHT22;24320;56.980;24.336;2023-03-04T17:58:33;0.40;99.90
28654;DHT22;24320;56.980;24.336;2023-03-04T18:01:15;0.40;99.90
28654;DHT22;24320;56.980;24.336;2023-03-04T18:03:42;0.40;99.90
28654;DHT22;24320;56.980;24.336;2023-03-04T18:06:09;0.40;99.90
28654;DHT22;24320;56.980;24.336;2023-03-04T18:08:36;0.40;99.90
28654;DHT22;24320;56.980;24.336;2023-03-04T18:11:03;0.40;99.90
28654;DHT22;24320;56.980;24.336;2023-03-04T18:13:30;0.40;99.90
28654;DHT22;24320;56.980;24.336;2023-03-04T18:15:57;0.40;99.90
28654;DHT22;24320;56.980;24.336;2023-03-04T18:18:24;0.40;99.90